sensor_id;sensor_type;location;lat;lon;timestamp;temperature;humidity
39345;DHT22;25061;51.954;6.996;2023-05-17T04:32:56;7.50;99.90
39345;DHT22;25061;51.954;6.996;2023-05-17T04:35:23;7.40;99.90
39345;DHT22;25061;51.954;6.996;2023-05-17T04:37:48;7.50;99.90
39345;DHT22;25061;51.954;6.996;2023-05-17T04:40:14;7.50;99.90
39345;DHT22;25061;51.954;6.996;2023-05-17T04:42:40;7.50;99.90
39345;DHT22;25061;51.954;6.996;2023-05-17T04:45:06;7.60;99.90
39345;DHT22;25061;51.954;6.996;2023-05-17T04:47:31;7.60;99.90
39345;DHT22;25061;51.954;6.996;2023-05-17T04:49:57;7.70;99.90
39345;DHT22;25061;51.954;6.996;2023-05-17T04:52:22;7.70;99.90
39345;DHT22;25061;51.954;6.996;2023-05-17T04:54:50;7.70;99.90
39345;DHT22;25061;51.954;6.996;2023-05-17T04:57:16;7.70;99.90
39345;DHT22;25061;51.954;6.996;2023-05-17T04:59:42;7.80;99.90
39345;DHT22;25061;51.954;6.996;2023-05-17T05:02:07;7.80;99.90
39345;DHT22;25061;51.954;6.996;2023-05-17T05:04:34;7.80;99.90
39345;DHT22;25061;51.954;6.996;2023-05-17T05:06:59;7.90;99.90
39345;DHT22;25061;51.954;6.996;2023-05-17T05:09:25;8.00;99.90
39345;DHT22;25061;51.954;6.996;2023-05-17T05:11:51;8.00;99.90
39345;DHT22;25061;51.954;6.996;2023-05-17T05:14:16;8.00;99.90
39345;DHT22;25061;51.954;6.996;2023-05-17T05:16:42;8.10;99.90
39345;DHT22;25061;51.954;6.996;2023-05-17T05:19:08;8.10;99.90
39345;DHT22;25061;51.954;6.996;2023-05-17T05:21:34;8.10;99.90
39345;DHT22;25061;51.954;6.996;2023-05-17T05:24:00;8.20;99.90
39345;DHT22;25061;51.954;6.996;2023-05-17T05:26:25;8.20;99.90
39345;DHT22;25061;51.954;6.996;2023-05-17T05:28:52;8.30;99.90
39345;DHT22;25061;51.954;6.996;2023-05-17T05:31:18;8.30;99.90
39345;DHT22;25061;51.954;6.996;2023-05-17T05:33:43;8.40;99.90
39345;DHT22;25061;51.954;6.996;2023-05-17T05:36:09;8.40;99.90
39345;DHT22;25061;51.954;6.996;2023-05-17T05:38:36;8.40;99.90
39345;DHT22;25061;51.954;6.996;2023-05-17T05:41:01;8.50;99.90
39345;DHT22;25061;51.954;6.996;2023-05-17T05:43:27;8.50;99.90
39345;DHT22;25061;51.954;6.996;2023-05-17T05:45:53;8.70;99.90
39345;DHT22;25061;51.954;6.996;2023-05-17T05:48:18;8.70;99.90
39345;DHT22;25061;51.954;6.996;2023-05-17T05:50:44;8.70;99.90
39345;DHT22;25061;51.954;6.996;2023-05-17T05:53:15;8.70;99.90
39345;DHT22;25061;51.954;6.996;2023-05-17T05:55:44;8.80;99.90
39345;DHT22;25061;51.954;6.996;2023-05-17T05:58:09;8.80;99.90
39345;DHT22;25061;51.954;6.996;2023-05-17T06:00:35;8.90;99.90
39345;DHT22;25061;51.954;6.996;2023-05-17T06:03:01;8.90;99.90
39345;DHT22;25061;51.954;6.996;2023-05-17T06:05:27;9.00;99.90
39345;DHT22;25061;51.954;6.996;2023-05-17T06:07:52;9.10;99.90
39345;DHT22;25061;51.954;6.996;2023-05-17T06:10:18;9.20;99.90
39345;DHT22;25061;51.954;6.996;2023-05-17T06:12:44;9.30;99.90
39345;DHT22;25061;51.954;6.996;2023-05-17T06:15:09;9.50;99.90
39345;DHT22;25061;51.954;6.996;2023-05-17T06:17:35;9.90;99.90
39345;DHT22;25061;51.954;6.996;2023-05-17T06:20:01;11.00;99.90
39345;DHT22;25061;51.954;6.996;2023-05-17T06:22:27;11.20;99.90
39345;DHT22;25061;51.954;6.996;2023-05-17T06:24:52;10.40;99.90
39345;DHT22;25061;51.954;6.996;2023-05-17T06:27:19;10.10;99.90
39345;DHT22;25061;51.954;6.996;2023-05-17T06:29:45;10.00;99.90
39345;DHT22;25061;51.954;6.996;2023-05-17T06:32:10;10.00;99.90
39345;DHT22;25061;51.954;6.996;2023-05-17T06:34:36;10.00;99.90
39345;DHT22;25061;51.954;6.996;2023-05-17T06:37:04;9.90;99.90
39345;DHT22;25061;51.954;6.996;2023-05-17T06:39:29;9.90;99.90
39345;DHT22;25061;51.954;6.996;2023-05-17T06:41:55;10.00;99.90
39345;DHT22;25061;51.954;6.996;2023-05-17T06:44:21;9.90;99.90
39345;DHT22;25061;51.954;6.996;2023-05-17T06:46:46;9.80;99.90
39345;DHT22;25061;51.954;6.996;2023-05-17T06:49:12;9.80;99.90
39345;DHT22;25061;51.954;6.996;2023-05-17T06:51:37;9.60;99.90
39345;DHT22;25061;51.954;6.996;2023-05-17T06:54:03;9.50;99.90
39345;DHT22;25061;51.954;6.996;2023-05-17T06:56:30;9.60;99.90
39345;DHT22;25061;51.954;6.996;2023-05-17T06:58:56;9.90;99.90
39345;DHT22;25061;51.954;6.996;2023-05-17T07:01:21;10.10;99.90
39345;DHT22;25061;51.954;6.996;2023-05-17T07:03:47;10.00;99.90
39345;DHT22;25061;51.954;6.996;2023-05-17T07:06:12;10.00;99.90
39345;DHT22;25061;51.954;6.996;2023-05-17T07:08:38;9.90;99.90
39345;DHT22;25061;51.954;6.996;2023-05-17T07:11:04;10.10;99.90
39345;DHT22;25061;51.954;6.996;2023-05-17T07:13:30;10.30;99.90
39345;DHT22;25061;51.954;6.996;2023-05-17T07:15:56;10.40;99.90
39345;DHT22;25061;51.954;6.996;2023-05-17T07:18:22;10.10;99.90
39345;DHT22;25061;51.954;6.996;2023-05-17T07:20:48;10.10;99.90
39345;DHT22;25061;51.954;6.996;2023-05-17T07:23:13;10.20;99.90
39345;DHT22;25061;51.954;6.996;2023-05-17T07:25:39;10.20;99.90
39345;DHT22;25061;51.954;6.996;2023-05-17T07:28:07;10.10;99.90
39345;DHT22;25061;51.954;6.996;2023-05-17T07:30:32;10.10;99.90
39345;DHT22;25061;51.954;6.996;2023-05-17T07:32:58;10.10;99.90
39345;DHT22;25061;51.954;6.996;2023-05-17T07:35:24;10.10;99.90
39345;DHT22;25061;51.954;6.996;2023-05-17T07:37:49;10.20;99.90
39345;DHT22;25061;51.954;6.996;2023-05-17T07:40:15;10.20;99.90
39345;DHT22;25061;51.954;6.996;2023-05-17T07:42:40;10.20;99.90
39345;DHT22;25061;51.954;6.996;2023-05-17T07:45:07;10.30;99.90
39345;DHT22;25061;51.954;6.996;2023-05-17T07:47:32;10.50;99.90
39345;DHT22;25061;51.954;6.996;2023-05-17T07:49:58;10.60;99.90
39345;DHT22;25061;51.954;6.996;2023-05-17T07:52:24;10.70;99.90
39345;DHT22;25061;51.954;6.996;2023-05-17T07:54:49;10.80;99.90
39345;DHT22;25061;51.954;6.996;2023-05-17T07:57:15;10.80;99.90
39345;DHT22;25061;51.954;6.996;2023-05-17T07:59:40;10.90;99.90
39345;DHT22;25061;51.954;6.996;2023-05-17T08:02:06;10.80;99.90
39345;DHT22;25061;51.954;6.996;2023-05-17T08:04:32;10.80;99.90
39345;DHT22;25061;51.954;6.996;2023-05-17T08:06:57;10.70;99.90
39345;DHT22;25061;51.954;6.996;2023-05-17T08:09:25;10.80;99.90
39345;DHT22;25061;51.954;6.996;2023-05-17T08:11:50;10.80;99.90
39345;DHT22;25061;51.954;6.996;2023-05-17T08:14:17;10.90;99.90
39345;DHT22;25061;51.954;6.996;2023-05-17T08:16:44;10.90;99.90
39345;DHT22;25061;51.954;6.996;2023-05-17T08:19:12;10.80;99.90
39345;DHT22;25061;51.954;6.996;2023-05-17T08:21:40;11.00;99.90
39345;DHT22;25061;51.954;6.996;2023-05-17T08:24:07;11.20;99.90
39345;DHT22;25061;51.954;6.996;2023-05-17T08:26:32;11.20;99.90
39345;DHT22;25061;51.954;6.996;2023-05-17T08:28:58;11.20;99.90
39345;DHT22;25061;51.954;6.996;2023-05-17T08:31:24;11.20;99.90
39345;DHT22;25061;51.954;6.996;2023-05-17T08:33:50;11.30;99.90
39345;DHT22;25061;51.954;6.996;2023-05-17T08:36:16;11.20;99.90
39345;DHT22;25061;51.954;6.996;2023-05-17T08:38:42;11.00;99.90
39345;DHT22;25061;51.954;6.996;2023-05-17T08:41:09;10.80;99.90
39345;DHT22;25061;51.954;6.996;2023-05-17T08:43:34;10.80;99.90
39345;DHT22;25061;51.954;6.996;2023-05-17T08:46:00;10.60;99.90
39345;DHT22;25061;51.954;6.996;2023-05-17T08:48:28;10.50;99.90
39345;DHT22;25061;51.954;6.996;2023-05-17T08:50:56;10.40;99.90
39345;DHT22;25061;51.954;6.996;2023-05-17T08:53:23;10.50;99.90
39345;DHT22;25061;51.954;6.996;2023-05-17T08:55:50;10.70;99.90
39345;DHT22;25061;51.954;6.996;2023-05-17T08:58:26;10.70;99.90
39345;DHT22;25061;51.954;6.996;2023-05-17T09:00:53;10.60;99.90
39345;DHT22;25061;51.954;6.996;2023-05-17T09:03:20;10.60;99.90
39345;DHT22;25061;51.954;6.996;2023-05-17T09:05:50;10.70;99.90
39345;DHT22;25061;51.954;6.996;2023-05-17T09:08:23;10.80;99.90
39345;DHT22;25061;51.954;6.996;2023-05-17T09:10:49;10.80;99.90
39345;DHT22;25061;51.954;6.996;2023-05-17T09:13:15;10.80;99.90
39345;DHT22;25061;51.954;6.996;2023-05-17T09:15:42;11.10;99.90
39345;DHT22;25061;51.954;6.996;2023-05-17T09:18:11;11.40;99.90
39345;DHT22;25061;51.954;6.996;2023-05-17T09:20:37;11.50;99.90
39345;DHT22;25061;51.954;6.996;2023-05-17T09:23:06;11.40;99.90
39345;DHT22;25061;51.954;6.996;2023-05-17T09:25:33;11.70;99.90
39345;DHT22;25061;51.954;6.996;2023-05-17T09:28:04;11.70;99.90
39345;DHT22;25061;51.954;6.996;2023-05-17T09:30:34;11.70;99.90
39345;DHT22;25061;51.954;6.996;2023-05-17T09:33:05;11.80;99.90
39345;DHT22;25061;51.954;6.996;2023-05-17T09:35:32;11.80;99.90
39345;DHT22;25061;51.954;6.996;2023-05-17T09:40:40;12.10;99.90
39345;DHT22;25061;51.954;6.996;2023-05-17T09:43:06;11.90;99.90
39345;DHT22;25061;51.954;6.996;2023-05-17T09:45:33;11.70;99.90
39345;DHT22;25061;51.954;6.996;2023-05-17T09:48:15;11.60;99.90
39345;DHT22;25061;51.954;6.996;2023-05-17T09:50:47;11.60;99.90
39345;DHT22;25061;51.954;6.996;2023-05-17T09:53:33;11.70;99.90
39345;DHT22;25061;51.954;6.996;2023-05-17T09:56:05;11.80;99.90
39345;DHT22;25061;51.954;6.996;2023-05-17T09:58:32;11.90;99.90
39345;DHT22;25061;51.954;6.996;2023-05-17T10:00:59;12.10;99.90
39345;DHT22;25061;51.954;6.996;2023-05-17T10:03:30;12.00;99.90
39345;DHT22;25061;51.954;6.996;2023-05-17T10:05:58;11.90;99.90
39345;DHT22;25061;51.954;6.996;2023-05-17T10:08:25;11.80;99.90
39345;DHT22;25061;51.954;6.996;2023-05-17T10:10:55;11.70;99.90
39345;DHT22;25061;51.954;6.996;2023-05-17T10:13:28;12.00;99.90
39345;DHT22;25061;51.954;6.996;2023-05-17T10:15:54;12.10;99.90
39345;DHT22;25061;51.954;6.996;2023-05-17T10:18:22;12.30;99.90
39345;DHT22;25061;51.954;6.996;2023-05-17T10:20:49;12.40;99.90
39345;DHT22;25061;51.954;6.996;2023-05-17T10:23:16;12.60;99.90
39345;DHT22;25061;51.954;6.996;2023-05-17T10:25:43;12.70;99.90
39345;DHT22;25061;51.954;6.996;2023-05-17T10:28:11;12.40;99.90
39345;DHT22;25061;51.954;6.996;2023-05-17T10:30:39;12.40;99.90
39345;DHT22;25061;51.954;6.996;2023-05-17T10:33:05;12.70;99.90
39345;DHT22;25061;51.954;6.996;2023-05-17T10:35:32;13.00;99.90
39345;DHT22;25061;51.954;6.996;2023-05-17T10:37:58;12.90;99.90
39345;DHT22;25061;51.954;6.996;2023-05-17T10:40:24;12.70;99.90
39345;DHT22;25061;51.954;6.996;2023-05-17T10:42:51;12.80;99.90
39345;DHT22;25061;51.954;6.996;2023-05-17T10:45:23;12.80;99.90
39345;DHT22;25061;51.954;6.996;2023-05-17T10:47:53;12.70;99.90
39345;DHT22;25061;51.954;6.996;2023-05-17T10:50:23;12.70;99.90
39345;DHT22;25061;51.954;6.996;2023-05-17T10:52:50;12.90;99.90
39345;DHT22;25061;51.954;6.996;2023-05-17T10:55:20;13.00;99.90
39345;DHT22;25061;51.954;6.996;2023-05-17T10:58:22;13.20;99.90
39345;DHT22;25061;51.954;6.996;2023-05-17T11:00:51;13.30;99.40
39345;DHT22;25061;51.954;6.996;2023-05-17T11:03:24;13.10;99.80
39345;DHT22;25061;51.954;6.996;2023-05-17T11:06:32;12.90;99.90
39345;DHT22;25061;51.954;6.996;2023-05-17T11:09:14;13.00;99.60
39345;DHT22;25061;51.954;6.996;2023-05-17T11:12:07;13.20;99.90
39345;DHT22;25061;51.954;6.996;2023-05-17T11:15:06;12.90;99.20
39345;DHT22;25061;51.954;6.996;2023-05-17T11:17:37;13.20;99.30
39345;DHT22;25061;51.954;6.996;2023-05-17T11:22:50;13.40;99.70
39345;DHT22;25061;51.954;6.996;2023-05-17T11:25:20;13.60;98.50
39345;DHT22;25061;51.954;6.996;2023-05-17T11:27:48;13.20;99.10
39345;DHT22;25061;51.954;6.996;2023-05-17T11:30:20;13.20;99.60
39345;DHT22;25061;51.954;6.996;2023-05-17T11:32:51;13.10;98.70
39345;DHT22;25061;51.954;6.996;2023-05-17T11:35:18;13.20;98.20
39345;DHT22;25061;51.954;6.996;2023-05-17T11:37:51;13.50;98.60
39345;DHT22;25061;51.954;6.996;2023-05-17T11:40:24;13.50;98.50
39345;DHT22;25061;51.954;6.996;2023-05-17T11:43:11;13.80;99.00
39345;DHT22;25061;51.954;6.996;2023-05-17T11:45:45;13.90;98.40
39345;DHT22;25061;51.954;6.996;2023-05-17T11:48:12;14.00;99.00
39345;DHT22;25061;51.954;6.996;2023-05-17T11:50:40;14.00;98.60
39345;DHT22;25061;51.954;6.996;2023-05-17T11:53:06;14.00;98.30
39345;DHT22;25061;51.954;6.996;2023-05-17T11:55:41;14.00;98.30
39345;DHT22;25061;51.954;6.996;2023-05-17T11:58:08;13.90;98.30
39345;DHT22;25061;51.954;6.996;2023-05-17T12:00:36;14.20;97.50
39345;DHT22;25061;51.954;6.996;2023-05-17T12:03:20;14.10;96.80
39345;DHT22;25061;51.954;6.996;2023-05-17T12:05:47;14.30;96.30
39345;DHT22;25061;51.954;6.996;2023-05-17T12:08:17;14.20;96.10
39345;DHT22;25061;51.954;6.996;2023-05-17T12:10:45;14.20;96.70
39345;DHT22;25061;51.954;6.996;2023-05-17T12:13:11;14.00;96.50
39345;DHT22;25061;51.954;6.996;2023-05-17T12:15:37;14.30;96.90
39345;DHT22;25061;51.954;6.996;2023-05-17T12:18:02;14.40;97.10
39345;DHT22;25061;51.954;6.996;2023-05-17T12:20:31;14.50;96.20
39345;DHT22;25061;51.954;6.996;2023-05-17T12:22:59;14.40;95.50
39345;DHT22;25061;51.954;6.996;2023-05-17T12:25:25;14.40;95.30
39345;DHT22;25061;51.954;6.996;2023-05-17T12:27:53;14.50;96.00
39345;DHT22;25061;51.954;6.996;2023-05-17T12:30:27;14.70;96.30
39345;DHT22;25061;51.954;6.996;2023-05-17T12:32:56;14.70;94.20
39345;DHT22;25061;51.954;6.996;2023-05-17T12:35:23;14.90;94.20
39345;DHT22;25061;51.954;6.996;2023-05-17T12:37:49;14.70;95.00
39345;DHT22;25061;51.954;6.996;2023-05-17T12:40:14;15.10;94.70
39345;DHT22;25061;51.954;6.996;2023-05-17T12:42:40;15.10;94.80
39345;DHT22;25061;51.954;6.996;2023-05-17T12:45:09;15.20;95.00
39345;DHT22;25061;51.954;6.996;2023-05-17T12:47:37;15.30;94.00
39345;DHT22;25061;51.954;6.996;2023-05-17T12:50:03;15.40;94.40
39345;DHT22;25061;51.954;6.996;2023-05-17T12:52:33;15.50;94.20
39345;DHT22;25061;51.954;6.996;2023-05-17T12:55:04;15.30;93.30
39345;DHT22;25061;51.954;6.996;2023-05-17T12:57:30;15.40;94.90
39345;DHT22;25061;51.954;6.996;2023-05-17T12:59:56;15.30;93.10
39345;DHT22;25061;51.954;6.996;2023-05-17T13:02:22;15.50;93.30
39345;DHT22;25061;51.954;6.996;2023-05-17T13:04:48;15.70;94.00
39345;DHT22;25061;51.954;6.996;2023-05-17T13:07:22;15.70;92.40
39345;DHT22;25061;51.954;6.996;2023-05-17T13:09:48;15.40;91.20
39345;DHT22;25061;51.954;6.996;2023-05-17T13:12:22;15.70;93.80
39345;DHT22;25061;51.954;6.996;2023-05-17T13:14:51;16.10;93.60
39345;DHT22;25061;51.954;6.996;2023-05-17T13:17:18;16.00;93.30
39345;DHT22;25061;51.954;6.996;2023-05-17T13:19:47;15.50;93.10
39345;DHT22;25061;51.954;6.996;2023-05-17T13:22:13;15.10;92.80
39345;DHT22;25061;51.954;6.996;2023-05-17T13:24:41;15.30;93.70
39345;DHT22;25061;51.954;6.996;2023-05-17T13:27:07;15.90;93.00
39345;DHT22;25061;51.954;6.996;2023-05-17T13:29:36;16.10;93.30
39345;DHT22;25061;51.954;6.996;2023-05-17T13:32:02;15.50;93.40
39345;DHT22;25061;51.954;6.996;2023-05-17T13:34:28;15.80;93.70
39345;DHT22;25061;51.954;6.996;2023-05-17T13:36:54;15.80;94.10
39345;DHT22;25061;51.954;6.996;2023-05-17T13:39:21;15.90;93.70
39345;DHT22;25061;51.954;6.996;2023-05-17T13:41:47;15.80;94.70
39345;DHT22;25061;51.954;6.996;2023-05-17T13:44:13;16.10;93.70
39345;DHT22;25061;51.954;6.996;2023-05-17T13:46:38;15.60;93.80
39345;DHT22;25061;51.954;6.996;2023-05-17T13:49:04;15.90;93.10
39345;DHT22;25061;51.954;6.996;2023-05-17T13:51:35;16.10;92.90
39345;DHT22;25061;51.954;6.996;2023-05-17T13:54:07;15.90;93.70
39345;DHT22;25061;51.954;6.996;2023-05-17T13:56:33;16.30;93.80
39345;DHT22;25061;51.954;6.996;2023-05-17T13:58:59;16.30;92.50
39345;DHT22;25061;51.954;6.996;2023-05-17T14:01:25;16.50;93.00
39345;DHT22;25061;51.954;6.996;2023-05-17T14:03:50;15.50;91.70
39345;DHT22;25061;51.954;6.996;2023-05-17T14:06:16;15.60;90.80
39345;DHT22;25061;51.954;6.996;2023-05-17T14:08:42;15.10;90.90
39345;DHT22;25061;51.954;6.996;2023-05-17T14:11:10;15.20;92.70
39345;DHT22;25061;51.954;6.996;2023-05-17T14:13:37;15.90;93.00
39345;DHT22;25061;51.954;6.996;2023-05-17T14:16:03;15.90;91.00
39345;DHT22;25061;51.954;6.996;2023-05-17T14:18:29;15.30;90.80
39345;DHT22;25061;51.954;6.996;2023-05-17T14:20:55;15.50;93.80
39345;DHT22;25061;51.954;6.996;2023-05-17T14:23:21;15.80;91.20
39345;DHT22;25061;51.954;6.996;2023-05-17T14:25:47;16.20;91.40
39345;DHT22;25061;51.954;6.996;2023-05-17T14:28:13;16.40;90.40
39345;DHT22;25061;51.954;6.996;2023-05-17T14:30:41;16.60;90.80
39345;DHT22;25061;51.954;6.996;2023-05-17T14:33:10;16.50;91.60
39345;DHT22;25061;51.954;6.996;2023-05-17T14:35:36;15.50;91.70
39345;DHT22;25061;51.954;6.996;2023-05-17T14:38:02;16.00;91.30
39345;DHT22;25061;51.954;6.996;2023-05-17T14:40:27;16.50;91.40
39345;DHT22;25061;51.954;6.996;2023-05-17T14:43:02;16.70;90.30
39345;DHT22;25061;51.954;6.996;2023-05-17T14:45:34;16.70;88.50
39345;DHT22;25061;51.954;6.996;2023-05-17T14:48:00;16.80;90.20
39345;DHT22;25061;51.954;6.996;2023-05-17T14:50:25;16.10;87.60
39345;DHT22;25061;51.954;6.996;2023-05-17T14:52:51;15.70;91.50
39345;DHT22;25061;51.954;6.996;2023-05-17T14:55:17;15.80;91.60
39345;DHT22;25061;51.954;6.996;2023-05-17T14:57:43;15.70;90.50
39345;DHT22;25061;51.954;6.996;2023-05-17T15:00:09;15.40;91.70
39345;DHT22;25061;51.954;6.996;2023-05-17T15:02:35;15.40;90.90
39345;DHT22;25061;51.954;6.996;2023-05-17T15:05:01;15.50;91.20
39345;DHT22;25061;51.954;6.996;2023-05-17T15:07:33;15.40;92.20
39345;DHT22;25061;51.954;6.996;2023-05-17T15:09:59;15.70;91.80
39345;DHT22;25061;51.954;6.996;2023-05-17T15:12:24;15.60;91.40
39345;DHT22;25061;51.954;6.996;2023-05-17T15:14:51;15.90;92.00
39345;DHT22;25061;51.954;6.996;2023-05-17T15:17:16;16.00;91.80
39345;DHT22;25061;51.954;6.996;2023-05-17T15:19:42;15.60;92.20
39345;DHT22;25061;51.954;6.996;2023-05-17T15:22:08;15.50;92.20
39345;DHT22;25061;51.954;6.996;2023-05-17T15:24:33;15.80;92.40
39345;DHT22;25061;51.954;6.996;2023-05-17T15:27:01;15.90;92.20
39345;DHT22;25061;51.954;6.996;2023-05-17T15:29:27;16.00;91.30
39345;DHT22;25061;51.954;6.996;2023-05-17T15:31:54;16.10;90.30
39345;DHT22;25061;51.954;6.996;2023-05-17T15:34:20;16.20;90.60
39345;DHT22;25061;51.954;6.996;2023-05-17T15:36:46;16.10;89.80
39345;DHT22;25061;51.954;6.996;2023-05-17T15:39:11;16.00;90.70
39345;DHT22;25061;51.954;6.996;2023-05-17T15:41:37;16.00;91.00
39345;DHT22;25061;51.954;6.996;2023-05-17T15:44:04;16.10;90.10
39345;DHT22;25061;51.954;6.996;2023-05-17T15:46:30;16.10;90.20
39345;DHT22;25061;51.954;6.996;2023-05-17T15:48:55;16.30;91.00
39345;DHT22;25061;51.954;6.996;2023-05-17T15:51:21;16.00;90.50
39345;DHT22;25061;51.954;6.996;2023-05-17T15:53:47;15.80;90.60
39345;DHT22;25061;51.954;6.996;2023-05-17T15:56:12;16.00;91.00
39345;DHT22;25061;51.954;6.996;2023-05-17T15:58:40;15.70;90.30
39345;DHT22;25061;51.954;6.996;2023-05-17T16:01:05;15.40;90.40
39345;DHT22;25061;51.954;6.996;2023-05-17T16:03:31;15.50;92.60
39345;DHT22;25061;51.954;6.996;2023-05-17T16:05:58;15.40;91.00
39345;DHT22;25061;51.954;6.996;2023-05-17T16:08:24;15.50;90.80
39345;DHT22;25061;51.954;6.996;2023-05-17T16:10:50;15.60;91.20
39345;DHT22;25061;51.954;6.996;2023-05-17T16:13:15;15.50;90.50
39345;DHT22;25061;51.954;6.996;2023-05-17T16:15:41;15.70;90.70
39345;DHT22;25061;51.954;6.996;2023-05-17T16:18:06;15.10;91.60
39345;DHT22;25061;51.954;6.996;2023-05-17T16:20:36;15.00;91.80
39345;DHT22;25061;51.954;6.996;2023-05-17T16:23:02;14.80;91.10
39345;DHT22;25061;51.954;6.996;2023-05-17T16:25:27;14.90;92.60
39345;DHT22;25061;51.954;6.996;2023-05-17T16:27:53;14.90;92.10
39345;DHT22;25061;51.954;6.996;2023-05-17T16:30:18;14.80;92.10
39345;DHT22;25061;51.954;6.996;2023-05-17T16:32:45;15.00;92.20
39345;DHT22;25061;51.954;6.996;2023-05-17T16:35:11;15.00;92.20
39345;DHT22;25061;51.954;6.996;2023-05-17T16:37:37;14.80;91.90
39345;DHT22;25061;51.954;6.996;2023-05-17T16:40:02;14.70;91.70
39345;DHT22;25061;51.954;6.996;2023-05-17T16:42:29;14.80;91.90
39345;DHT22;25061;51.954;6.996;2023-05-17T16:44:54;14.70;92.10
39345;DHT22;25061;51.954;6.996;2023-05-17T16:47:20;14.60;92.40
39345;DHT22;25061;51.954;6.996;2023-05-17T16:49:50;14.60;92.70
39345;DHT22;25061;51.954;6.996;2023-05-17T16:52:16;14.40;92.30
39345;DHT22;25061;51.954;6.996;2023-05-17T16:54:41;14.50;93.30
39345;DHT22;25061;51.954;6.996;2023-05-17T16:57:07;14.50;92.50
39345;DHT22;25061;51.954;6.996;2023-05-17T16:59:33;14.50;92.50
39345;DHT22;25061;51.954;6.996;2023-05-17T17:01:59;14.30;92.90
39345;DHT22;25061;51.954;6.996;2023-05-17T17:04:24;14.30;93.10
39345;DHT22;25061;51.954;6.996;2023-05-17T17:06:51;14.60;94.40
39345;DHT22;25061;51.954;6.996;2023-05-17T17:09:16;14.80;93.80
39345;DHT22;25061;51.954;6.996;2023-05-17T17:11:43;14.70;92.40
39345;DHT22;25061;51.954;6.996;2023-05-17T17:14:09;14.20;91.70
39345;DHT22;25061;51.954;6.996;2023-05-17T17:16:35;14.20;92.30
39345;DHT22;25061;51.954;6.996;2023-05-17T17:19:01;14.10;92.20
39345;DHT22;25061;51.954;6.996;2023-05-17T17:21:27;13.90;91.90
39345;DHT22;25061;51.954;6.996;2023-05-17T17:23:55;14.00;92.90
39345;DHT22;25061;51.954;6.996;2023-05-17T17:26:21;13.90;92.70
39345;DHT22;25061;51.954;6.996;2023-05-17T17:28:46;13.90;92.90
39345;DHT22;25061;51.954;6.996;2023-05-17T17:31:12;13.70;93.40
39345;DHT22;25061;51.954;6.996;2023-05-17T17:33:38;13.80;93.20
39345;DHT22;25061;51.954;6.996;2023-05-17T17:36:04;13.90;92.70
39345;DHT22;25061;51.954;6.996;2023-05-17T17:38:30;13.90;93.20
39345;DHT22;25061;51.954;6.996;2023-05-17T17:40:56;13.70;93.20
39345;DHT22;25061;51.954;6.996;2023-05-17T17:43:23;13.70;93.90
39345;DHT22;25061;51.954;6.996;2023-05-17T17:45:48;13.70;94.00
39345;DHT22;25061;51.954;6.996;2023-05-17T17:48:14;13.80;93.80
39345;DHT22;25061;51.954;6.996;2023-05-17T17:50:39;13.70;93.60
39345;DHT22;25061;51.954;6.996;2023-05-17T17:53:05;13.60;93.60
39345;DHT22;25061;51.954;6.996;2023-05-17T17:55:31;13.50;94.10
39345;DHT22;25061;51.954;6.996;2023-05-17T17:57:57;13.30;93.50
39345;DHT22;25061;51.954;6.996;2023-05-17T18:00:22;13.30;94.00
39345;DHT22;25061;51.954;6.996;2023-05-17T18:02:48;13.40;94.90
39345;DHT22;25061;51.954;6.996;2023-05-17T18:05:14;13.30;94.30
39345;DHT22;25061;51.954;6.996;2023-05-17T18:07:39;13.00;94.00
39345;DHT22;25061;51.954;6.996;2023-05-17T18:10:05;13.00;94.20
39345;DHT22;25061;51.954;6.996;2023-05-17T18:12:31;12.90;94.60
39345;DHT22;25061;51.954;6.996;2023-05-17T18:14:57;12.80;94.90
39345;DHT22;25061;51.954;6.996;2023-05-17T18:17:22;12.70;94.60
39345;DHT22;25061;51.954;6.996;2023-05-17T18:19:48;12.70;95.20
39345;DHT22;25061;51.954;6.996;2023-05-17T18:22:14;12.70;95.30
39345;DHT22;25061;51.954;6.996;2023-05-17T18:24:41;12.80;95.70
39345;DHT22;25061;51.954;6.996;2023-05-17T18:27:07;12.60;95.80
39345;DHT22;25061;51.954;6.996;2023-05-17T18:29:38;12.60;95.80
39345;DHT22;25061;51.954;6.996;2023-05-17T18:32:04;12.50;95.40
39345;DHT22;25061;51.954;6.996;2023-05-17T18:34:30;12.50;96.30
39345;DHT22;25061;51.954;6.996;2023-05-17T18:36:55;12.40;96.40
39345;DHT22;25061;51.954;6.996;2023-05-17T18:39:21;12.50;96.80
39345;DHT22;25061;51.954;6.996;2023-05-17T18:41:47;12.40;96.60
39345;DHT22;25061;51.954;6.996;2023-05-17T18:44:12;12.20;96.70
39345;DHT22;25061;51.954;6.996;2023-05-17T18:46:38;12.20;97.00
39345;DHT22;25061;51.954;6.996;2023-05-17T18:49:04;12.20;97.10
39345;DHT22;25061;51.954;6.996;2023-05-17T18:51:29;12.20;97.40
39345;DHT22;25061;51.954;6.996;2023-05-17T18:53:57;12.10;97.40
39345;DHT22;25061;51.954;6.996;2023-05-17T18:56:23;12.10;97.20
39345;DHT22;25061;51.954;6.996;2023-05-17T18:58:50;12.00;97.40
39345;DHT22;25061;51.954;6.996;2023-05-17T19:01:17;11.90;98.10
39345;DHT22;25061;51.954;6.996;2023-05-17T19:03:43;11.80;97.80
39345;DHT22;25061;51.954;6.996;2023-05-17T19:06:08;11.80;98.00
39345;DHT22;25061;51.954;6.996;2023-05-17T19:08:34;11.70;98.00
39345;DHT22;25061;51.954;6.996;2023-05-17T19:11:00;11.60;98.20
39345;DHT22;25061;51.954;6.996;2023-05-17T19:13:28;11.50;98.70
39345;DHT22;25061;51.954;6.996;2023-05-17T19:15:54;11.40;98.70
39345;DHT22;25061;51.954;6.996;2023-05-17T19:18:19;11.30;99.10
39345;DHT22;25061;51.954;6.996;2023-05-17T19:20:45;11.20;99.20
39345;DHT22;25061;51.954;6.996;2023-05-17T19:23:11;11.10;99.50
39345;DHT22;25061;51.954;6.996;2023-05-17T19:25:38;11.00;99.90
39345;DHT22;25061;51.954;6.996;2023-05-17T19:28:03;11.00;99.90
39345;DHT22;25061;51.954;6.996;2023-05-17T19:30:29;10.90;99.90
39345;DHT22;25061;51.954;6.996;2023-05-17T19:32:55;10.90;99.90
39345;DHT22;25061;51.954;6.996;2023-05-17T19:35:21;10.90;99.90
39345;DHT22;25061;51.954;6.996;2023-05-17T19:37:48;10.90;99.90
39345;DHT22;25061;51.954;6.996;2023-05-17T19:40:14;10.80;99.90
39345;DHT22;25061;51.954;6.996;2023-05-17T19:42:43;10.70;99.90
39345;DHT22;25061;51.954;6.996;2023-05-17T19:45:09;10.70;99.90
39345;DHT22;25061;51.954;6.996;2023-05-17T19:47:37;10.60;99.90
39345;DHT22;25061;51.954;6.996;2023-05-17T19:50:04;10.50;99.90
39345;DHT22;25061;51.954;6.996;2023-05-17T19:52:30;10.40;99.90
39345;DHT22;25061;51.954;6.996;2023-05-17T19:54:56;10.40;99.90
39345;DHT22;25061;51.954;6.996;2023-05-17T19:57:22;10.30;99.90
39345;DHT22;25061;51.954;6.996;2023-05-17T19:59:53;10.30;99.90
39345;DHT22;25061;51.954;6.996;2023-05-17T20:02:22;10.30;99.90
39345;DHT22;25061;51.954;6.996;2023-05-17T20:04:48;10.30;99.90
39345;DHT22;25061;51.954;6.996;2023-05-17T20:07:13;10.20;99.90
39345;DHT22;25061;51.954;6.996;2023-05-17T20:09:40;10.20;99.90